Terminal Aerodrome Forecast
Issued by NWS Pocatello, ID

Home | Current Version | Previous Version | Text Only | Print | Product List | Glossary On
Versions: 1 2 3 4 5 6 7 8 9 10 11 12 13 14 15
000
FTUS45 KPIH 261700
TAFIDA
TAF
KIDA 261720Z 2618/2718 21020G30KT P6SM FEW008 SCT040 BKN180
     FM262300 21015KT P6SM FEW015 SCT180
     FM270800 15008KT P6SM SCT110 BKN160=

USA.gov is the U.S. government's official web portal to all federal, state and local government web resources and services.